Terminal Aerodrome Forecast
Issued by NWS Charleston, WV

Current Version | Previous Version | Graphics & Text | Print | Product List | Glossary On
Versions: 1 2 3 4 5 6 7 8 9 10 11 12 13 14 15 16 17 18 19 20 21 22 23 24 25 26 27
000
FTUS41 KRLX 140800 AAA
TAFBKW
TAF AMD
KBKW 140815Z 1408/1506 VRB03KT 6SM BR BKN006
      TEMPO 1408/1410 4SM BR
     FM141000 VRB03KT 4SM BR OVC012
     FM141500 12004KT P6SM BKN020
     FM150300 VRB03KT P6SM BKN010=

USA.gov is the U.S. government's official web portal to all federal, state and local government web resources and services.